createdAt,value
2018-01-01T00:01:00.200Z,0.00
2018-01-01T00:02:00.178Z,0.00
2018-01-01T00:03:53.181Z,0.00
2018-01-01T00:04:55.139Z,0.00
2018-01-01T00:06:46.188Z,0.00
2018-01-01T00:07:46.086Z,0.00
2018-01-01T00:09:39.170Z,0.00
2018-01-01T00:10:39.049Z,0.00
2018-01-01T00:12:32.016Z,0.00
2018-01-01T00:13:31.980Z,0.00
2018-01-01T00:15:25.014Z,0.00
2018-01-01T00:16:24.948Z,0.00
2018-01-01T00:18:18.044Z,0.00
2018-01-01T00:19:17.917Z,0.00
2018-01-01T00:21:11.866Z,0.00
2018-01-01T00:22:10.869Z,0.00
2018-01-01T00:24:03.845Z,0.00
2018-01-01T00:25:03.902Z,0.00
2018-01-01T00:26:56.785Z,0.00
2018-01-01T00:27:57.750Z,0.00
2018-01-01T00:29:51.762Z,0.00
2018-01-01T00:30:49.757Z,0.00
2018-01-01T00:32:42.777Z,0.00
2018-01-01T00:33:42.670Z,0.00
2018-01-01T00:35:35.716Z,0.00
2018-01-01T00:36:38.684Z,0.00
2018-01-01T00:38:29.265Z,0.00
2018-01-01T00:39:28.670Z,0.00
2018-01-01T00:41:21.650Z,0.00
2018-01-01T00:42:21.582Z,0.00
2018-01-01T00:44:14.669Z,0.00
2018-01-01T00:45:14.504Z,0.00
2018-01-01T00:47:07.518Z,0.00
2018-01-01T00:48:07.501Z,0.00
2018-01-01T00:50:00.596Z,0.00
2018-01-01T00:51:00.551Z,0.00
2018-01-01T00:52:53.481Z,0.00
2018-01-01T00:53:53.376Z,0.00
2018-01-01T00:55:46.494Z,0.00
2018-01-01T00:56:47.381Z,4.00
2018-01-01T00:58:40.322Z,0.00
2018-01-01T00:59:39.404Z,0.00
2018-01-01T01:01:32.368Z,0.00
2018-01-01T01:02:33.279Z,0.00
2018-01-01T01:04:25.277Z,0.00
2018-01-01T01:05:25.218Z,0.00
2018-01-01T01:07:18.296Z,0.00
2018-01-01T01:08:18.176Z,0.00
2018-01-01T01:10:11.289Z,0.00
2018-01-01T01:11:11.160Z,0.00
2018-01-01T01:13:04.285Z,0.00
2018-01-01T01:14:04.123Z,0.00
2018-01-01T01:15:59.230Z,0.00
2018-01-01T01:16:58.450Z,0.00
2018-01-01T01:18:50.036Z,0.00
2018-01-01T01:19:50.007Z,0.00
2018-01-01T01:21:42.997Z,0.00
2018-01-01T01:22:42.964Z,0.00
2018-01-01T01:24:36.159Z,0.00
2018-01-01T01:25:35.930Z,0.00
2018-01-01T01:27:29.882Z,0.00
2018-01-01T01:28:28.917Z,0.00
2018-01-01T01:30:21.820Z,0.00
2018-01-01T01:31:21.861Z,0.00
2018-01-01T01:33:14.795Z,0.00
2018-01-01T01:34:14.778Z,0.00
2018-01-01T01:36:07.743Z,0.00
2018-01-01T01:37:07.745Z,0.00
2018-01-01T01:39:00.716Z,0.00
2018-01-01T01:40:00.691Z,0.00
2018-01-01T01:41:53.654Z,0.00
2018-01-01T01:42:53.648Z,0.00
2018-01-01T01:44:48.116Z,0.00
2018-01-01T01:45:46.602Z,0.00
2018-01-01T01:47:39.577Z,0.00
2018-01-01T01:48:39.562Z,0.00
2018-01-01T01:50:32.541Z,0.00
2018-01-01T01:51:32.551Z,0.00
2018-01-01T01:53:25.475Z,0.00
2018-01-01T01:54:25.478Z,0.00
2018-01-01T01:56:18.462Z,0.00
2018-01-01T01:57:18.430Z,0.00
2018-01-01T01:59:11.431Z,0.00
2018-01-01T02:00:11.391Z,0.00
2018-01-01T02:02:04.380Z,0.00
2018-01-01T02:03:04.350Z,0.00
2018-01-01T02:04:57.311Z,0.00
2018-01-01T02:05:57.304Z,0.00
2018-01-01T02:07:50.287Z,0.00
2018-01-01T02:08:50.263Z,0.00
2018-01-01T02:10:43.222Z,0.00
2018-01-01T02:11:43.217Z,0.00
2018-01-01T02:13:36.208Z,0.00
2018-01-01T02:14:36.173Z,0.00
2018-01-01T02:16:29.133Z,0.00
2018-01-01T02:17:29.138Z,0.00
2018-01-01T02:19:22.127Z,0.00
2018-01-01T02:20:22.100Z,0.00
2018-01-01T02:22:15.056Z,0.00
2018-01-01T02:23:15.049Z,0.00
2018-01-01T02:25:08.040Z,0.00
2018-01-01T02:26:08.003Z,0.00
2018-01-01T02:28:00.968Z,0.00
2018-01-01T02:29:00.966Z,0.00
2018-01-01T02:30:53.947Z,0.00
2018-01-01T02:31:53.919Z,0.00
2018-01-01T02:32:53.928Z,0.00
2018-01-01T02:33:53.926Z,0.00
2018-01-01T02:34:53.936Z,0.00
2018-01-01T02:35:53.936Z,0.00
2018-01-01T02:36:53.938Z,0.00
2018-01-01T02:37:53.957Z,0.00
2018-01-01T02:38:53.950Z,0.00
2018-01-01T02:39:53.956Z,0.00
2018-01-01T02:40:54.910Z,0.00
2018-01-01T02:41:53.962Z,0.00
2018-01-01T02:42:53.979Z,0.00
2018-01-01T02:43:53.975Z,0.00
2018-01-01T02:44:53.975Z,0.00
2018-01-01T02:45:53.976Z,0.00
2018-01-01T02:46:54.027Z,0.00
2018-01-01T02:47:53.996Z,0.00
2018-01-01T02:48:53.988Z,0.00
2018-01-01T02:49:54.003Z,0.00
2018-01-01T02:50:54.003Z,0.00
2018-01-01T02:51:54.006Z,0.00
2018-01-01T02:52:54.014Z,0.00
2018-01-01T02:53:54.016Z,0.00
2018-01-01T02:54:54.019Z,0.00
2018-01-01T02:55:54.021Z,0.00
2018-01-01T02:56:54.035Z,0.00
2018-01-01T02:57:54.045Z,0.00
2018-01-01T02:58:54.039Z,0.00
2018-01-01T02:59:54.046Z,0.00
2018-01-01T03:00:54.046Z,0.00
2018-01-01T03:01:54.052Z,0.00
2018-01-01T03:02:54.055Z,0.00
2018-01-01T03:03:54.054Z,0.00
2018-01-01T03:04:54.064Z,0.00
2018-01-01T03:05:54.066Z,0.00
2018-01-01T03:06:54.071Z,0.00
2018-01-01T03:07:54.078Z,0.00
2018-01-01T03:08:54.083Z,0.00
2018-01-01T03:09:54.083Z,0.00
2018-01-01T03:10:54.104Z,0.00
2018-01-01T03:11:54.091Z,0.00
2018-01-01T03:12:54.114Z,0.00
2018-01-01T03:13:54.105Z,0.00
2018-01-01T03:14:54.103Z,0.00
2018-01-01T03:15:54.113Z,0.00
2018-01-01T03:16:54.111Z,0.00
2018-01-01T03:17:54.118Z,0.00
2018-01-01T03:18:54.117Z,0.00
2018-01-01T03:19:54.144Z,0.00
2018-01-01T03:20:54.123Z,0.00
2018-01-01T03:21:54.134Z,0.00
2018-01-01T03:22:54.141Z,0.00
2018-01-01T03:23:54.141Z,0.00
2018-01-01T03:24:54.146Z,0.00
2018-01-01T03:25:54.159Z,0.00
2018-01-01T03:26:54.192Z,0.00
2018-01-01T03:27:54.165Z,0.00
2018-01-01T03:28:54.173Z,0.00
2018-01-01T03:29:54.161Z,0.00
2018-01-01T03:30:54.175Z,0.00
2018-01-01T03:31:54.179Z,0.00
2018-01-01T03:32:54.181Z,0.00
2018-01-01T03:33:54.180Z,0.00
2018-01-01T03:34:54.188Z,0.00
2018-01-01T03:35:54.192Z,0.00
2018-01-01T03:36:54.198Z,0.00
2018-01-01T03:37:54.922Z,0.00
2018-01-01T03:38:54.216Z,0.00
2018-01-01T03:39:54.206Z,0.00
2018-01-01T03:40:54.222Z,0.00
2018-01-01T03:41:54.218Z,0.00
2018-01-01T03:42:54.229Z,0.00
2018-01-01T03:43:54.222Z,0.00
2018-01-01T03:44:54.235Z,0.00
2018-01-01T03:45:54.233Z,0.00
2018-01-01T03:46:54.243Z,0.00
2018-01-01T03:47:54.244Z,0.00
2018-01-01T03:48:54.248Z,0.00
2018-01-01T03:49:54.266Z,0.00
2018-01-01T03:50:54.257Z,0.00
2018-01-01T03:51:54.257Z,0.00
2018-01-01T03:52:54.275Z,0.00
2018-01-01T03:53:54.278Z,0.00
2018-01-01T03:54:54.278Z,0.00
2018-01-01T03:55:54.278Z,0.00
2018-01-01T03:56:54.275Z,0.00
2018-01-01T03:57:54.292Z,0.00
2018-01-01T03:58:54.293Z,0.00
2018-01-01T03:59:54.290Z,0.00
2018-01-01T04:00:54.307Z,0.00
2018-01-01T04:01:54.303Z,0.00
2018-01-01T04:02:54.302Z,0.00
2018-01-01T04:03:54.312Z,0.00
2018-01-01T04:04:54.312Z,0.00
2018-01-01T04:05:54.315Z,0.00
2018-01-01T04:06:54.319Z,0.00
2018-01-01T04:07:54.315Z,0.00
2018-01-01T04:08:54.326Z,0.00
2018-01-01T04:09:54.331Z,0.00
2018-01-01T04:10:54.331Z,0.00
2018-01-01T04:11:54.336Z,0.00
2018-01-01T04:12:54.338Z,0.00
2018-01-01T04:13:54.346Z,0.00
2018-01-01T04:14:54.345Z,0.00
2018-01-01T04:15:54.351Z,0.00
2018-01-01T04:16:54.352Z,0.00
2018-01-01T04:17:54.359Z,0.00
2018-01-01T04:18:54.361Z,0.00
2018-01-01T04:19:54.364Z,0.00
2018-01-01T04:20:54.370Z,0.00
2018-01-01T04:21:54.378Z,0.00
2018-01-01T04:22:54.376Z,0.00
2018-01-01T04:23:54.383Z,0.00
2018-01-01T04:24:54.387Z,0.00
2018-01-01T04:25:54.384Z,0.00
2018-01-01T04:26:54.394Z,0.00
2018-01-01T04:27:54.398Z,0.00
2018-01-01T04:28:54.412Z,0.00
2018-01-01T04:29:54.406Z,0.00
2018-01-01T04:30:54.416Z,0.00
2018-01-01T04:31:54.419Z,0.00
2018-01-01T04:32:54.429Z,0.00
2018-01-01T04:33:54.422Z,0.00
2018-01-01T04:34:54.424Z,0.00
2018-01-01T04:35:54.433Z,0.00
2018-01-01T04:36:54.431Z,0.00
2018-01-01T04:37:54.450Z,0.00
2018-01-01T04:38:54.504Z,0.00
2018-01-01T04:39:54.463Z,0.00
2018-01-01T04:40:54.443Z,0.00
2018-01-01T04:41:54.456Z,0.00
2018-01-01T04:42:54.454Z,0.00
2018-01-01T04:43:54.457Z,0.00
2018-01-01T04:44:54.466Z,0.00
2018-01-01T04:45:54.468Z,0.00
2018-01-01T04:46:54.471Z,0.00
2018-01-01T04:47:54.474Z,0.00
2018-01-01T04:48:54.485Z,0.00
2018-01-01T04:49:54.483Z,0.00
2018-01-01T04:50:54.482Z,0.00
2018-01-01T04:51:54.491Z,0.00
2018-01-01T04:52:54.502Z,0.00
2018-01-01T04:53:54.516Z,0.00
2018-01-01T04:54:54.505Z,0.00
2018-01-01T04:55:54.499Z,0.00
2018-01-01T04:56:54.510Z,0.00
2018-01-01T04:57:54.545Z,0.00
2018-01-01T04:58:54.534Z,0.00
2018-01-01T04:59:54.556Z,0.00
2018-01-01T05:00:54.523Z,0.00
2018-01-01T05:01:54.531Z,0.00
2018-01-01T05:02:54.536Z,0.00
2018-01-01T05:03:54.540Z,0.00
2018-01-01T05:04:54.543Z,0.00
2018-01-01T05:05:54.557Z,0.00
2018-01-01T05:06:54.552Z,0.00
2018-01-01T05:07:54.555Z,0.00
2018-01-01T05:08:54.561Z,0.00
2018-01-01T05:09:54.563Z,0.00
2018-01-01T05:10:54.584Z,0.00
2018-01-01T05:11:54.580Z,0.00
2018-01-01T05:13:48.432Z,0.00
2018-01-01T05:14:48.408Z,0.00
2018-01-01T05:16:41.406Z,0.00
2018-01-01T05:17:41.359Z,0.00
2018-01-01T05:18:41.367Z,0.00
2018-01-01T05:19:41.378Z,0.00
2018-01-01T05:20:41.379Z,0.00
2018-01-01T05:21:41.376Z,0.00
2018-01-01T05:22:41.383Z,0.00
2018-01-01T05:23:41.410Z,0.00
2018-01-01T05:24:41.408Z,0.00
2018-01-01T05:25:41.419Z,0.00
2018-01-01T05:26:42.368Z,0.00
2018-01-01T05:27:41.398Z,0.00
2018-01-01T05:28:41.406Z,0.00
2018-01-01T05:29:41.412Z,0.00
2018-01-01T05:30:41.440Z,0.00
2018-01-01T05:31:41.417Z,0.00
2018-01-01T05:32:41.426Z,0.00
2018-01-01T05:33:41.431Z,0.00
2018-01-01T05:34:41.434Z,0.00
2018-01-01T05:35:41.433Z,0.00
2018-01-01T05:36:41.440Z,0.00
2018-01-01T05:37:41.443Z,0.00
2018-01-01T05:38:41.449Z,0.00
2018-01-01T05:40:34.404Z,0.00
2018-01-01T05:41:34.380Z,0.00
2018-01-01T05:43:27.362Z,0.00
2018-01-01T05:44:27.349Z,0.00
2018-01-01T05:46:20.319Z,0.00
2018-01-01T05:47:20.316Z,0.00
2018-01-01T05:49:13.274Z,0.00
2018-01-01T05:50:13.249Z,0.00
2018-01-01T05:52:06.215Z,0.00
2018-01-01T05:53:06.224Z,0.00
2018-01-01T05:54:59.182Z,0.00
2018-01-01T05:55:59.177Z,0.00
2018-01-01T05:57:52.129Z,0.00
2018-01-01T05:58:52.119Z,0.00
2018-01-01T06:00:45.104Z,0.00
2018-01-01T06:01:45.075Z,0.00
2018-01-01T06:03:38.037Z,0.00
2018-01-01T06:04:38.039Z,0.00
2018-01-01T06:06:31.497Z,0.00
2018-01-01T06:07:30.998Z,0.00
2018-01-01T06:09:23.957Z,0.00
2018-01-01T06:10:23.952Z,0.00
2018-01-01T06:12:17.454Z,0.00
2018-01-01T06:13:17.421Z,0.00
2018-01-01T06:15:10.377Z,0.00
2018-01-01T06:16:10.383Z,0.00
2018-01-01T06:18:03.368Z,0.00
2018-01-01T06:19:03.341Z,0.00
2018-01-01T06:20:56.296Z,0.00
2018-01-01T06:21:56.298Z,0.00
2018-01-01T06:23:49.284Z,0.00
2018-01-01T06:24:49.260Z,0.00
2018-01-01T06:25:49.263Z,0.00
2018-01-01T06:26:49.281Z,0.00
2018-01-01T06:27:49.279Z,0.00
2018-01-01T06:28:49.281Z,0.00
2018-01-01T06:29:49.264Z,0.00
2018-01-01T06:30:49.268Z,0.00
2018-01-01T06:31:49.278Z,0.00
2018-01-01T06:32:49.271Z,0.00
2018-01-01T06:33:50.237Z,0.00
2018-01-01T06:34:49.287Z,0.00
2018-01-01T06:35:49.294Z,0.00
2018-01-01T06:36:49.298Z,0.00
2018-01-01T06:37:49.300Z,0.00
2018-01-01T06:38:49.307Z,0.00
2018-01-01T06:39:49.312Z,0.00
2018-01-01T06:40:49.323Z,0.00
2018-01-01T06:41:49.321Z,0.00
2018-01-01T06:42:49.314Z,0.00
2018-01-01T06:43:49.341Z,0.00
2018-01-01T06:44:49.319Z,0.00
2018-01-01T06:45:49.320Z,0.00
2018-01-01T06:46:49.329Z,0.00
2018-01-01T06:47:49.336Z,0.00
2018-01-01T06:48:49.340Z,0.00
2018-01-01T06:49:49.334Z,0.00
2018-01-01T06:50:49.338Z,0.00
2018-01-01T06:51:49.345Z,0.00
2018-01-01T06:52:49.352Z,0.00
2018-01-01T06:53:49.350Z,0.00
2018-01-01T06:54:49.358Z,0.00
2018-01-01T06:55:49.358Z,0.00
2018-01-01T06:56:49.362Z,0.00
2018-01-01T06:57:49.368Z,0.00
2018-01-01T06:58:49.376Z,4.00
2018-01-01T06:59:49.381Z,4.00
2018-01-01T07:00:49.378Z,4.00
2018-01-01T07:01:49.429Z,4.00
2018-01-01T07:02:49.386Z,4.00
2018-01-01T07:04:42.328Z,0.00
2018-01-01T07:05:42.296Z,0.00
2018-01-01T07:07:35.280Z,4.00
2018-01-01T07:08:35.246Z,4.00
2018-01-01T07:10:28.205Z,4.00
2018-01-01T07:11:28.224Z,4.00
2018-01-01T07:13:21.201Z,0.00
2018-01-01T07:14:21.164Z,4.00
2018-01-01T07:16:14.123Z,4.00
2018-01-01T07:17:14.126Z,4.00
2018-01-01T07:19:07.110Z,4.00
2018-01-01T07:20:07.079Z,4.00
2018-01-01T07:22:00.039Z,4.00
2018-01-01T07:23:00.034Z,4.00
2018-01-01T07:24:53.024Z,0.00
2018-01-01T07:25:52.990Z,4.00
2018-01-01T07:27:45.948Z,8.00
2018-01-01T07:28:45.952Z,8.00
2018-01-01T07:30:38.928Z,8.00
2018-01-01T07:31:38.907Z,8.00
2018-01-01T07:33:31.862Z,8.00
2018-01-01T07:34:31.857Z,8.00
2018-01-01T07:36:24.874Z,8.00
2018-01-01T07:37:24.820Z,12.00
2018-01-01T07:39:17.774Z,8.00
2018-01-01T07:40:17.774Z,12.00
2018-01-01T07:42:10.805Z,28.00
2018-01-01T07:43:10.737Z,36.00
2018-01-01T07:45:03.706Z,36.00
2018-01-01T07:46:03.685Z,44.00
2018-01-01T07:47:03.697Z,60.00
2018-01-01T07:48:03.701Z,68.00
2018-01-01T07:49:03.694Z,88.00
2018-01-01T07:50:03.707Z,104.00
2018-01-01T07:51:03.709Z,128.00
2018-01-01T07:52:03.723Z,164.00
2018-01-01T07:53:03.706Z,168.00
2018-01-01T07:54:03.737Z,184.00
2018-01-01T07:55:03.713Z,192.00
2018-01-01T07:56:03.727Z,200.00
2018-01-01T07:57:03.729Z,176.00
2018-01-01T07:58:03.718Z,152.00
2018-01-01T07:59:03.737Z,148.00
2018-01-01T08:00:03.747Z,164.00
2018-01-01T08:01:03.735Z,176.00
2018-01-01T08:02:03.732Z,180.00
2018-01-01T08:03:03.740Z,176.00
2018-01-01T08:04:03.743Z,188.00
2018-01-01T08:05:03.743Z,224.00
2018-01-01T08:06:03.774Z,276.00
2018-01-01T08:07:03.748Z,380.00
2018-01-01T08:08:03.755Z,580.00
2018-01-01T08:09:03.753Z,712.00
2018-01-01T08:10:03.758Z,768.00
2018-01-01T08:11:03.755Z,852.00
2018-01-01T08:12:03.782Z,880.00
2018-01-01T08:13:04.699Z,956.00
2018-01-01T08:14:03.773Z,876.00
2018-01-01T08:15:03.769Z,876.00
2018-01-01T08:16:03.775Z,1024.00
2018-01-01T08:17:03.775Z,1260.00
2018-01-01T08:18:03.780Z,1304.00
2018-01-01T08:19:03.792Z,1304.00
2018-01-01T08:20:03.785Z,1496.00
2018-01-01T08:21:03.800Z,1708.00
2018-01-01T08:22:03.791Z,1712.00
2018-01-01T08:23:03.833Z,1472.00
2018-01-01T08:24:03.795Z,1480.00
2018-01-01T08:25:03.816Z,1460.00
2018-01-01T08:26:03.811Z,1356.00
2018-01-01T08:27:03.804Z,1176.00
2018-01-01T08:28:03.810Z,1016.00
2018-01-01T08:29:03.817Z,892.00
2018-01-01T08:30:56.801Z,1008.00
2018-01-01T08:31:56.773Z,828.00
2018-01-01T08:33:49.737Z,852.00
2018-01-01T08:34:49.765Z,868.00
2018-01-01T08:36:42.722Z,744.00
2018-01-01T08:37:42.702Z,768.00
2018-01-01T08:38:42.697Z,844.00
2018-01-01T08:39:42.696Z,940.00
2018-01-01T08:40:42.704Z,1104.00
2018-01-01T08:41:42.702Z,1184.00
2018-01-01T08:42:42.709Z,1316.00
2018-01-01T08:43:42.711Z,1392.00
2018-01-01T08:44:42.712Z,1376.00
2018-01-01T08:45:42.769Z,1268.00
2018-01-01T08:46:42.788Z,1316.00
2018-01-01T08:47:42.778Z,1232.00
2018-01-01T08:48:42.719Z,1228.00
2018-01-01T08:50:35.660Z,1316.00
2018-01-01T08:51:35.641Z,1404.00
2018-01-01T08:53:29.108Z,1408.00
2018-01-01T08:54:29.149Z,1256.00
2018-01-01T08:56:22.076Z,1532.00
2018-01-01T08:57:22.047Z,1624.00
2018-01-01T08:59:15.014Z,1644.00
2018-01-01T09:00:15.015Z,1616.00
2018-01-01T09:02:19.673Z,1572.00
2018-01-01T09:03:19.638Z,1520.00
2018-01-01T09:04:19.649Z,1484.00
2018-01-01T09:05:19.657Z,1436.00
2018-01-01T09:06:19.713Z,1120.00
2018-01-01T09:07:19.697Z,996.00
2018-01-01T09:08:19.660Z,1136.00
2018-01-01T09:09:19.676Z,1016.00
2018-01-01T09:10:19.754Z,1016.00
2018-01-01T09:11:19.673Z,1108.00
2018-01-01T09:13:12.676Z,996.00
2018-01-01T09:14:12.655Z,896.00
2018-01-01T09:16:05.634Z,840.00
2018-01-01T09:17:05.621Z,780.00
2018-01-01T09:18:58.582Z,660.00
2018-01-01T09:19:58.575Z,788.00
2018-01-01T09:21:51.563Z,872.00
2018-01-01T09:22:51.536Z,828.00
2018-01-01T09:23:51.537Z,828.00
2018-01-01T09:24:51.624Z,888.00
2018-01-01T09:25:51.668Z,1184.00
2018-01-01T09:26:51.757Z,1260.00
2018-01-01T09:28:44.550Z,1256.00
2018-01-01T09:29:44.522Z,976.00
2018-01-01T09:31:37.484Z,964.00
2018-01-01T09:32:37.473Z,980.00
2018-01-01T09:34:30.476Z,1268.00
2018-01-01T09:35:30.432Z,1852.00
2018-01-01T09:37:23.398Z,2064.00
2018-01-01T09:38:23.393Z,2080.00
2018-01-01T09:40:16.379Z,2132.00
2018-01-01T09:41:16.346Z,16480.00
2018-01-01T09:43:09.310Z,2496.00
2018-01-01T09:44:09.310Z,4776.00
2018-01-01T09:46:02.302Z,7288.00
2018-01-01T09:47:02.261Z,17856.00
2018-01-01T09:48:02.269Z,2808.00
2018-01-01T09:49:02.278Z,2688.00
2018-01-01T09:50:02.277Z,3140.00
2018-01-01T09:51:02.276Z,2144.00
2018-01-01T09:52:02.282Z,2276.00
2018-01-01T09:53:02.288Z,3600.00
2018-01-01T09:54:02.287Z,1568.00
2018-01-01T09:55:02.292Z,1856.00
2018-01-01T09:56:02.299Z,1540.00
2018-01-01T09:57:02.304Z,1744.00
2018-01-01T09:58:02.314Z,2048.00
2018-01-01T09:59:02.306Z,2120.00
2018-01-01T10:00:02.319Z,3284.00
2018-01-01T10:01:55.239Z,15840.00
2018-01-01T10:02:55.219Z,5000.00
2018-01-01T10:04:48.181Z,3596.00
2018-01-01T10:05:48.180Z,2716.00
2018-01-01T10:07:41.167Z,2116.00
2018-01-01T10:08:41.152Z,1808.00
2018-01-01T10:10:34.089Z,1576.00
2018-01-01T10:11:34.134Z,2104.00
2018-01-01T10:13:27.078Z,2380.00
2018-01-01T10:14:27.041Z,2184.00
2018-01-01T10:16:20.007Z,2836.00
2018-01-01T10:17:20.044Z,5580.00
2018-01-01T10:19:13.477Z,4352.00
2018-01-01T10:20:12.965Z,4380.00
2018-01-01T10:22:05.938Z,2616.00
2018-01-01T10:23:05.931Z,1580.00
2018-01-01T10:24:58.902Z,2012.00
2018-01-01T10:25:58.906Z,3140.00
2018-01-01T10:27:51.854Z,4616.00
2018-01-01T10:28:51.836Z,4528.00
2018-01-01T10:30:44.966Z,3132.00
2018-01-01T10:31:44.793Z,2364.00
2018-01-01T10:33:37.753Z,1516.00
2018-01-01T10:34:37.752Z,1260.00
2018-01-01T10:36:30.797Z,1164.00
2018-01-01T10:37:30.707Z,1376.00
2018-01-01T10:39:23.772Z,1672.00
2018-01-01T10:40:25.644Z,1544.00
2018-01-01T10:42:16.713Z,6356.00
2018-01-01T10:43:16.721Z,2832.00
2018-01-01T10:45:09.623Z,2004.00
2018-01-01T10:46:10.573Z,1788.00
2018-01-01T10:48:03.468Z,1132.00
2018-01-01T10:49:03.367Z,1256.00
2018-01-01T10:50:56.332Z,1384.00
2018-01-01T10:51:56.333Z,3072.00
2018-01-01T10:53:49.384Z,2224.00
2018-01-01T10:54:49.281Z,2068.00
2018-01-01T10:56:42.789Z,1600.00
2018-01-01T10:57:42.251Z,1384.00
2018-01-01T10:59:35.391Z,992.00
2018-01-01T11:00:35.402Z,1000.00
2018-01-01T11:02:29.160Z,912.00
2018-01-01T11:03:29.004Z,896.00
2018-01-01T11:05:22.933Z,944.00
2018-01-01T11:06:22.802Z,920.00
2018-01-01T11:08:15.689Z,1344.00
2018-01-01T11:09:15.724Z,1420.00
2018-01-01T11:11:08.785Z,1036.00
2018-01-01T11:12:09.642Z,992.00
2018-01-01T11:14:02.694Z,1116.00
2018-01-01T11:15:01.719Z,1280.00
2018-01-01T11:16:54.681Z,1556.00
2018-01-01T11:17:54.705Z,1220.00
2018-01-01T11:19:47.627Z,1372.00
2018-01-01T11:20:47.620Z,1636.00
2018-01-01T11:22:40.611Z,1372.00
2018-01-01T11:23:40.576Z,1240.00
2018-01-01T11:25:33.542Z,1232.00
2018-01-01T11:26:33.535Z,1300.00
2018-01-01T11:28:26.523Z,1128.00
2018-01-01T11:29:26.494Z,1076.00
2018-01-01T11:31:19.449Z,1240.00
2018-01-01T11:32:19.452Z,1408.00
2018-01-01T11:34:12.424Z,1740.00
2018-01-01T11:35:12.408Z,2036.00
2018-01-01T11:37:05.369Z,2908.00
2018-01-01T11:38:05.364Z,4596.00
2018-01-01T11:39:58.338Z,2420.00
2018-01-01T11:40:58.325Z,2028.00
2018-01-01T11:42:51.277Z,1612.00
2018-01-01T11:43:51.272Z,1444.00
2018-01-01T11:45:44.261Z,1400.00
2018-01-01T11:46:44.235Z,1232.00
2018-01-01T11:48:37.198Z,1264.00
2018-01-01T11:49:37.197Z,1304.00
2018-01-01T11:51:30.167Z,1248.00
2018-01-01T11:52:30.150Z,1604.00
2018-01-01T11:54:23.106Z,2128.00
2018-01-01T11:55:23.112Z,1792.00
2018-01-01T11:57:16.092Z,1724.00
2018-01-01T11:58:16.061Z,1752.00
2018-01-01T12:00:09.023Z,1912.00
2018-01-01T12:01:09.024Z,1952.00
2018-01-01T12:02:09.027Z,2056.00
2018-01-01T12:03:09.032Z,1944.00
2018-01-01T12:04:09.036Z,1844.00
2018-01-01T12:05:09.041Z,1864.00
2018-01-01T12:06:09.040Z,1960.00
2018-01-01T12:07:09.042Z,1912.00
2018-01-01T12:08:09.050Z,2064.00
2018-01-01T12:09:09.059Z,2264.00
2018-01-01T12:10:09.058Z,2464.00
2018-01-01T12:11:09.065Z,2336.00
2018-01-01T12:12:09.069Z,2060.00
2018-01-01T12:13:09.092Z,2020.00
2018-01-01T12:14:09.078Z,2144.00
2018-01-01T12:15:09.081Z,2512.00
2018-01-01T12:16:09.086Z,2424.00
2018-01-01T12:17:09.089Z,2180.00
2018-01-01T12:18:09.102Z,1924.00
2018-01-01T12:19:09.101Z,1848.00
2018-01-01T12:20:09.110Z,1596.00
2018-01-01T12:21:09.109Z,1300.00
2018-01-01T12:22:09.118Z,1120.00
2018-01-01T12:23:09.118Z,1196.00
2018-01-01T12:24:09.125Z,1232.00
2018-01-01T12:25:09.137Z,1064.00
2018-01-01T12:26:09.135Z,976.00
2018-01-01T12:27:09.135Z,948.00
2018-01-01T12:28:09.143Z,868.00
2018-01-01T12:29:09.148Z,860.00
2018-01-01T12:30:09.194Z,880.00
2018-01-01T12:31:09.154Z,860.00
2018-01-01T12:32:09.163Z,752.00
2018-01-01T12:33:09.163Z,620.00
2018-01-01T12:34:09.172Z,664.00
2018-01-01T12:35:09.169Z,716.00
2018-01-01T12:36:09.180Z,652.00
2018-01-01T12:37:10.016Z,592.00
2018-01-01T12:38:09.186Z,608.00
2018-01-01T12:39:09.190Z,584.00
2018-01-01T12:40:09.197Z,536.00
2018-01-01T12:41:09.197Z,504.00
2018-01-01T12:42:09.205Z,540.00
2018-01-01T12:43:09.212Z,640.00
2018-01-01T12:44:09.214Z,676.00
2018-01-01T12:45:09.214Z,756.00
2018-01-01T12:46:09.224Z,872.00
2018-01-01T12:47:09.229Z,860.00
2018-01-01T12:48:09.227Z,912.00
2018-01-01T12:49:09.254Z,1048.00
2018-01-01T12:50:09.238Z,1224.00
2018-01-01T12:51:09.245Z,1584.00
2018-01-01T12:52:09.249Z,1840.00
2018-01-01T12:53:09.253Z,1868.00
2018-01-01T12:54:09.254Z,1856.00
2018-01-01T12:55:09.262Z,2036.00
2018-01-01T12:56:09.267Z,2436.00
2018-01-01T12:57:09.272Z,2716.00
2018-01-01T12:58:09.272Z,2480.00
2018-01-01T12:59:09.275Z,2008.00
2018-01-01T13:00:09.286Z,1644.00
2018-01-01T13:01:09.287Z,1424.00
2018-01-01T13:02:09.297Z,1248.00
2018-01-01T13:03:09.296Z,1108.00
2018-01-01T13:04:09.298Z,948.00
2018-01-01T13:05:09.310Z,888.00
2018-01-01T13:06:09.309Z,756.00
2018-01-01T13:07:09.316Z,704.00
2018-01-01T13:08:09.323Z,688.00
2018-01-01T13:09:09.326Z,740.00
2018-01-01T13:10:09.333Z,780.00
2018-01-01T13:11:09.339Z,784.00
2018-01-01T13:12:09.344Z,728.00
2018-01-01T13:13:09.344Z,668.00
2018-01-01T13:14:09.404Z,648.00
2018-01-01T13:15:09.349Z,596.00
2018-01-01T13:16:09.441Z,552.00
2018-01-01T13:17:09.363Z,496.00
2018-01-01T13:18:09.365Z,476.00
2018-01-01T13:19:09.370Z,480.00
2018-01-01T13:20:09.375Z,520.00
2018-01-01T13:21:09.376Z,592.00
2018-01-01T13:22:09.385Z,688.00
2018-01-01T13:23:09.386Z,728.00
2018-01-01T13:24:09.395Z,728.00
2018-01-01T13:25:09.398Z,720.00
2018-01-01T13:26:09.400Z,672.00
2018-01-01T13:27:09.414Z,628.00
2018-01-01T13:28:09.411Z,608.00
2018-01-01T13:29:09.418Z,544.00
2018-01-01T13:33:06.166Z,476.00
2018-01-01T13:34:05.580Z,484.00
2018-01-01T13:35:58.496Z,452.00
2018-01-01T13:36:58.493Z,432.00
2018-01-01T13:38:51.481Z,476.00
2018-01-01T13:39:51.451Z,516.00
2018-01-01T13:41:44.408Z,600.00
2018-01-01T13:42:44.408Z,636.00
2018-01-01T13:44:37.393Z,680.00
2018-01-01T13:45:37.360Z,720.00
2018-01-01T13:47:30.319Z,740.00
2018-01-01T13:48:30.332Z,736.00
2018-01-01T13:50:26.034Z,700.00
2018-01-01T13:51:23.273Z,660.00
2018-01-01T13:53:16.232Z,568.00
2018-01-01T13:54:16.235Z,548.00
2018-01-01T13:56:09.216Z,484.00
2018-01-01T13:57:09.185Z,456.00
2018-01-01T13:59:02.152Z,444.00
2018-01-01T14:00:02.146Z,496.00
2018-01-01T14:01:02.152Z,608.00
2018-01-01T14:02:02.157Z,732.00
2018-01-01T14:03:02.159Z,772.00
2018-01-01T14:04:02.163Z,752.00
2018-01-01T14:05:02.174Z,720.00
2018-01-01T14:06:02.176Z,724.00
2018-01-01T14:07:02.193Z,736.00
2018-01-01T14:08:02.183Z,716.00
2018-01-01T14:09:03.175Z,664.00
2018-01-01T14:10:02.229Z,584.00
2018-01-01T14:11:02.193Z,532.00
2018-01-01T14:12:02.204Z,528.00
2018-01-01T14:13:02.214Z,564.00
2018-01-01T14:14:02.210Z,540.00
2018-01-01T14:15:02.216Z,472.00
2018-01-01T14:16:02.211Z,392.00
2018-01-01T14:17:02.222Z,340.00
2018-01-01T14:18:02.225Z,332.00
2018-01-01T14:19:02.228Z,360.00
2018-01-01T14:20:02.233Z,408.00
2018-01-01T14:21:02.239Z,500.00
2018-01-01T14:22:02.247Z,560.00
2018-01-01T14:23:02.246Z,572.00
2018-01-01T14:24:02.254Z,568.00
2018-01-01T14:25:02.257Z,572.00
2018-01-01T14:26:02.265Z,564.00
2018-01-01T14:27:02.264Z,568.00
2018-01-01T14:28:02.278Z,556.00
2018-01-01T14:29:02.279Z,556.00
2018-01-01T14:30:02.278Z,588.00
2018-01-01T14:31:02.310Z,604.00
2018-01-01T14:32:02.288Z,592.00
2018-01-01T14:33:02.319Z,580.00
2018-01-01T14:34:02.337Z,556.00
2018-01-01T14:35:02.341Z,544.00
2018-01-01T14:36:02.342Z,540.00
2018-01-01T14:37:02.339Z,556.00
2018-01-01T14:38:02.354Z,560.00
2018-01-01T14:39:02.345Z,568.00
2018-01-01T14:40:02.372Z,564.00
2018-01-01T14:41:02.349Z,560.00
2018-01-01T14:42:02.352Z,540.00
2018-01-01T14:43:02.367Z,512.00
2018-01-01T14:44:02.354Z,496.00
2018-01-01T14:45:02.390Z,480.00
2018-01-01T14:46:02.365Z,440.00
2018-01-01T14:47:02.392Z,388.00
2018-01-01T14:48:02.383Z,312.00
2018-01-01T14:49:02.385Z,252.00
2018-01-01T14:50:02.412Z,220.00
2018-01-01T14:51:02.407Z,212.00
2018-01-01T14:52:02.393Z,208.00
2018-01-01T14:53:02.403Z,204.00
2018-01-01T14:54:02.381Z,204.00
2018-01-01T14:55:02.411Z,200.00
2018-01-01T14:56:02.396Z,192.00
2018-01-01T14:57:02.401Z,176.00
2018-01-01T14:58:02.405Z,160.00
2018-01-01T14:59:02.405Z,132.00
2018-01-01T15:00:02.409Z,108.00
2018-01-01T15:01:02.423Z,100.00
2018-01-01T15:02:02.422Z,100.00
2018-01-01T15:03:02.423Z,104.00
2018-01-01T15:04:02.425Z,100.00
2018-01-01T15:05:02.432Z,100.00
2018-01-01T15:06:02.435Z,96.00
2018-01-01T15:07:02.437Z,88.00
2018-01-01T15:08:02.439Z,92.00